createdAt,value
2022-08-22T00:00:56.968Z,67.38
2022-08-22T00:02:46.391Z,59.04
2022-08-22T00:02:48.774Z,58.20
2022-08-22T00:03:03.386Z,57.23
2022-08-22T00:04:15.214Z,67.53
2022-08-22T00:07:12.902Z,67.16
2022-08-22T00:10:25.880Z,67.34
2022-08-22T00:13:13.439Z,67.40
2022-08-22T00:16:03.119Z,67.39
2022-08-22T00:18:44.629Z,67.66
2022-08-22T00:21:43.355Z,67.56
2022-08-22T00:24:24.798Z,67.38
2022-08-22T00:27:07.645Z,67.61
2022-08-22T00:29:49.272Z,67.27
2022-08-22T00:32:40.483Z,67.65
2022-08-22T00:35:19.844Z,67.50
2022-08-22T00:38:07.284Z,67.46
2022-08-22T00:40:48.677Z,67.58
2022-08-22T00:43:49.775Z,67.84
2022-08-22T00:46:23.326Z,68.24
2022-08-22T00:49:15.725Z,68.15
2022-08-22T00:52:02.646Z,68.33
2022-08-22T00:54:56.273Z,69.07
2022-08-22T00:57:46.015Z,69.17
2022-08-22T01:00:34.357Z,69.38
2022-08-22T01:03:29.255Z,69.24
2022-08-22T01:06:12.497Z,69.25
2022-08-22T01:09:09.974Z,69.27
2022-08-22T01:11:58.865Z,69.17
2022-08-22T01:14:37.405Z,69.21
2022-08-22T01:17:29.866Z,69.23
2022-08-22T01:20:10.721Z,69.15
2022-08-22T01:23:08.412Z,69.37
2022-08-22T01:26:13.523Z,69.41
2022-08-22T01:28:56.341Z,69.61
2022-08-22T01:31:36.416Z,69.32
2022-08-22T01:34:30.320Z,69.37
2022-08-22T01:37:20.010Z,69.44
2022-08-22T01:40:20.827Z,69.65
2022-08-22T01:43:59.310Z,69.37
2022-08-22T01:46:28.727Z,69.41
2022-08-22T01:49:25.589Z,69.39
2022-08-22T01:52:19.757Z,69.52
2022-08-22T01:54:56.300Z,69.22
2022-08-22T01:57:25.212Z,69.13
2022-08-22T01:59:55.779Z,69.39
2022-08-22T02:02:41.927Z,69.32
2022-08-22T02:05:32.032Z,69.60
2022-08-22T02:08:03.119Z,69.65
2022-08-22T02:10:49.066Z,69.67
2022-08-22T02:13:41.257Z,69.60
2022-08-22T02:16:20.167Z,69.65
2022-08-22T02:18:57.852Z,69.73
2022-08-22T02:21:51.718Z,69.71
2022-08-22T02:24:22.596Z,69.56
2022-08-22T02:27:10.382Z,69.67
2022-08-22T02:29:53.601Z,69.84
2022-08-22T02:32:46.782Z,69.60
2022-08-22T02:41:52.858Z,69.75
2022-08-22T02:45:08.658Z,69.71
2022-08-22T02:48:20.642Z,69.89
2022-08-22T02:51:05.895Z,69.95
2022-08-22T02:57:11.379Z,69.34
2022-08-22T03:00:30.749Z,68.89
2022-08-22T03:03:07.272Z,69.13
2022-08-22T03:05:38.488Z,69.30
2022-08-22T03:08:09.302Z,69.55
2022-08-22T03:10:46.144Z,69.41
2022-08-22T03:13:36.523Z,69.70
2022-08-22T03:16:13.513Z,69.80
2022-08-22T03:19:03.575Z,70.15
2022-08-22T03:21:41.791Z,70.11
2022-08-22T03:24:26.928Z,70.06
2022-08-22T03:27:32.691Z,70.01
2022-08-22T03:30:17.285Z,70.20
2022-08-22T03:32:50.861Z,70.17
2022-08-22T03:35:39.238Z,70.23
2022-08-22T03:51:04.498Z,71.01
2022-08-22T03:53:51.544Z,71.01
2022-08-22T03:59:44.002Z,70.83
2022-08-22T04:02:43.620Z,70.79
2022-08-22T04:06:11.501Z,70.52
2022-08-22T04:09:10.478Z,70.66
2022-08-22T04:11:57.053Z,70.27
2022-08-22T04:15:02.485Z,69.94
2022-08-22T04:18:09.200Z,69.72
2022-08-22T04:20:49.609Z,69.47
2022-08-22T04:23:44.969Z,70.00
2022-08-22T04:26:29.922Z,70.56
2022-08-22T04:29:14.808Z,70.63
2022-08-22T04:31:51.452Z,70.62
2022-08-22T04:34:39.560Z,70.65
2022-08-22T04:40:29.595Z,70.84
2022-08-22T04:43:09.542Z,70.74
2022-08-22T04:45:57.510Z,70.96
2022-08-22T04:48:28.454Z,70.89
2022-08-22T04:53:55.988Z,70.61
2022-08-22T04:56:57.414Z,70.39
2022-08-22T04:59:33.496Z,70.37
2022-08-22T05:02:08.435Z,69.90
2022-08-22T05:07:58.956Z,69.22
2022-08-22T05:10:48.399Z,69.27
2022-08-22T05:13:29.379Z,68.96
2022-08-22T05:16:06.497Z,68.91
2022-08-22T05:18:43.631Z,68.57
2022-08-22T05:21:17.122Z,68.59
2022-08-22T05:24:31.037Z,68.17
2022-08-22T05:27:09.936Z,67.85
2022-08-22T05:29:44.041Z,67.74
2022-08-22T05:32:26.496Z,67.64
2022-08-22T05:35:02.497Z,67.20
2022-08-22T05:37:49.709Z,66.71
2022-08-22T05:40:25.281Z,66.47
2022-08-22T05:42:57.032Z,66.22
2022-08-22T05:48:45.219Z,65.45
2022-08-22T05:51:30.421Z,65.32
2022-08-22T05:54:12.462Z,65.26
2022-08-22T05:56:46.933Z,64.97
2022-08-22T05:59:23.591Z,64.60
2022-08-22T06:02:18.865Z,63.98
2022-08-22T06:04:47.371Z,63.60
2022-08-22T06:07:28.564Z,63.27
2022-08-22T06:10:26.213Z,63.10
2022-08-22T06:16:16.519Z,62.24
2022-08-22T06:18:54.941Z,62.00
2022-08-22T06:21:37.660Z,61.33
2022-08-22T06:24:13.820Z,61.07
2022-08-22T06:26:48.604Z,61.09
2022-08-22T06:29:38.436Z,60.48
2022-08-22T06:32:59.388Z,60.02
2022-08-22T06:35:20.165Z,59.54
2022-08-22T06:37:51.016Z,58.99
2022-08-22T06:40:19.427Z,59.16
2022-08-22T06:42:51.285Z,59.05
2022-08-22T06:45:24.169Z,58.35
2022-08-22T06:48:49.483Z,57.96
2022-08-22T06:51:22.281Z,57.47
2022-08-22T06:53:57.081Z,57.45
2022-08-22T06:57:16.124Z,56.65
2022-08-22T06:59:49.423Z,56.39
2022-08-22T07:02:55.223Z,56.11
2022-08-22T07:05:28.614Z,55.74
2022-08-22T07:07:57.812Z,55.93
2022-08-22T07:10:29.055Z,56.11
2022-08-22T07:12:57.856Z,55.93
2022-08-22T07:15:40.100Z,56.28
2022-08-22T07:18:19.686Z,56.43
2022-08-22T07:21:05.324Z,56.10
2022-08-22T07:23:42.636Z,56.59
2022-08-22T07:26:23.965Z,56.16
2022-08-22T07:29:10.706Z,56.01
2022-08-22T07:35:23.097Z,55.40
2022-08-22T07:38:03.951Z,55.38
2022-08-22T07:41:24.536Z,54.32
2022-08-22T07:44:46.585Z,53.72
2022-08-22T07:47:21.859Z,52.81
2022-08-22T07:50:00.283Z,52.44
2022-08-22T07:52:39.119Z,51.80
2022-08-22T07:55:20.328Z,51.68
2022-08-22T07:57:55.627Z,51.24
2022-08-22T08:00:24.983Z,50.98
2022-08-22T08:03:06.972Z,50.61
2022-08-22T08:05:37.596Z,50.70
2022-08-22T08:08:18.257Z,50.41
2022-08-22T08:10:51.446Z,50.77
2022-08-22T08:13:34.845Z,50.21
2022-08-22T08:16:11.109Z,50.28
2022-08-22T08:19:04.735Z,50.21
2022-08-22T08:21:39.600Z,50.24
2022-08-22T08:24:13.701Z,50.34
2022-08-22T08:27:14.113Z,50.22
2022-08-22T08:30:06.748Z,50.63
2022-08-22T08:32:38.594Z,50.39
2022-08-22T08:35:15.552Z,50.28
2022-08-22T08:37:57.082Z,50.12
2022-08-22T08:40:56.831Z,49.92
2022-08-22T08:43:38.579Z,50.31
2022-08-22T08:46:19.150Z,50.81
2022-08-22T08:49:15.010Z,50.80
2022-08-22T08:51:59.161Z,49.57
2022-08-22T08:54:47.248Z,49.12
2022-08-22T08:57:24.960Z,49.13
2022-08-22T09:00:32.306Z,48.47
2022-08-22T09:03:24.056Z,48.28
2022-08-22T09:06:52.863Z,47.96
2022-08-22T09:10:02.463Z,47.23
2022-08-22T09:13:11.794Z,47.05
2022-08-22T09:16:04.851Z,46.24
2022-08-22T09:19:29.249Z,45.63
2022-08-22T09:22:00.177Z,45.65
2022-08-22T09:24:34.296Z,45.16
2022-08-22T09:27:12.479Z,45.26
2022-08-22T09:29:59.821Z,44.88
2022-08-22T09:33:02.702Z,44.76
2022-08-22T09:35:52.152Z,44.88
2022-08-22T09:38:50.688Z,44.78
2022-08-22T09:41:35.311Z,45.40
2022-08-22T09:44:22.557Z,45.42
2022-08-22T09:47:06.808Z,45.38
2022-08-22T09:50:04.571Z,45.43
2022-08-22T09:53:06.196Z,45.20
2022-08-22T09:55:45.402Z,45.54
2022-08-22T09:58:48.241Z,45.46
2022-08-22T10:01:32.956Z,45.26
2022-08-22T10:04:07.784Z,45.42
2022-08-22T10:07:12.196Z,44.96
2022-08-22T10:10:21.654Z,44.64
2022-08-22T10:13:00.459Z,44.69
2022-08-22T10:15:41.008Z,44.37
2022-08-22T10:18:30.626Z,44.83
2022-08-22T10:21:31.058Z,44.64
2022-08-22T10:24:56.086Z,44.87
2022-08-22T10:28:01.441Z,44.67
2022-08-22T10:30:42.239Z,44.30
2022-08-22T10:33:23.582Z,44.07
2022-08-22T10:36:01.048Z,43.79
2022-08-22T10:38:46.540Z,43.83
2022-08-22T10:41:27.347Z,43.76
2022-08-22T10:44:04.467Z,43.99
2022-08-22T10:46:42.147Z,44.03
2022-08-22T10:49:40.751Z,44.18
2022-08-22T10:52:15.550Z,44.59
2022-08-22T10:54:53.521Z,44.49
2022-08-22T10:57:31.109Z,44.80
2022-08-22T11:00:13.337Z,44.87
2022-08-22T11:02:53.953Z,44.98
2022-08-22T11:05:50.038Z,44.77
2022-08-22T11:08:19.374Z,44.85
2022-08-22T11:11:17.629Z,44.70
2022-08-22T11:13:49.714Z,44.69
2022-08-22T11:16:24.111Z,44.48
2022-08-22T11:19:23.141Z,44.72
2022-08-22T11:22:04.190Z,45.03
2022-08-22T11:25:11.340Z,44.92
2022-08-22T11:27:51.043Z,45.39
2022-08-22T11:30:44.246Z,45.58
2022-08-22T11:33:46.161Z,45.28
2022-08-22T11:36:46.517Z,45.13
2022-08-22T11:39:33.714Z,45.20
2022-08-22T11:42:14.665Z,45.31
2022-08-22T11:45:01.715Z,45.29
2022-08-22T11:47:36.285Z,45.18
2022-08-22T11:50:15.098Z,45.13
2022-08-22T11:52:58.034Z,44.96
2022-08-22T11:55:43.790Z,45.22
2022-08-22T11:58:28.776Z,44.59
2022-08-22T12:01:13.052Z,44.58
2022-08-22T12:04:21.182Z,44.20
2022-08-22T12:07:14.155Z,44.27
2022-08-22T12:10:20.926Z,44.10
2022-08-22T12:12:56.745Z,44.37
2022-08-22T12:15:48.991Z,43.86
2022-08-22T12:18:42.245Z,43.59
2022-08-22T12:21:38.472Z,43.64
2022-08-22T12:24:19.243Z,43.97
2022-08-22T12:27:11.688Z,44.56
2022-08-22T12:30:01.476Z,44.62
2022-08-22T12:33:15.494Z,44.73
2022-08-22T12:36:04.870Z,45.37
2022-08-22T12:38:49.245Z,45.44
2022-08-22T12:41:48.477Z,46.21
2022-08-22T12:44:37.815Z,46.42
2022-08-22T12:47:42.270Z,46.66
2022-08-22T12:50:33.686Z,47.05
2022-08-22T12:53:26.149Z,46.15
2022-08-22T12:56:21.788Z,45.78
2022-08-22T12:59:37.418Z,46.49
2022-08-22T13:02:40.226Z,45.63
2022-08-22T13:05:19.953Z,45.34
2022-08-22T13:08:07.414Z,45.08
2022-08-22T13:10:55.504Z,44.56
2022-08-22T13:13:38.616Z,44.14
2022-08-22T13:16:11.737Z,44.10
2022-08-22T13:18:46.090Z,43.66
2022-08-22T13:21:22.252Z,43.95
2022-08-22T13:23:57.192Z,43.79
2022-08-22T13:26:34.407Z,43.27
2022-08-22T13:29:39.425Z,43.43
2022-08-22T13:32:26.356Z,43.19
2022-08-22T13:35:00.908Z,43.18
2022-08-22T13:37:55.135Z,43.20
2022-08-22T13:40:30.390Z,43.46
2022-08-22T13:46:26.124Z,43.34
2022-08-22T13:49:01.143Z,43.17
2022-08-22T13:51:36.135Z,42.86
2022-08-22T13:54:40.559Z,42.71
2022-08-22T13:57:32.068Z,42.90
2022-08-22T14:00:29.382Z,43.55
2022-08-22T14:03:11.078Z,42.99
2022-08-22T14:05:47.479Z,43.14
2022-08-22T14:08:33.690Z,43.10
2022-08-22T14:11:27.622Z,43.42
2022-08-22T14:14:01.342Z,43.46
2022-08-22T14:16:38.867Z,43.16
2022-08-22T14:19:19.092Z,43.08
2022-08-22T14:21:59.635Z,43.09
2022-08-22T14:24:55.664Z,42.22
2022-08-22T14:31:01.906Z,42.20
2022-08-22T14:33:40.862Z,42.49
2022-08-22T14:36:33.046Z,43.11
2022-08-22T14:39:31.187Z,42.68
2022-08-22T14:42:19.422Z,43.16
2022-08-22T14:45:13.820Z,43.14
2022-08-22T14:48:31.465Z,43.14
2022-08-22T14:51:04.486Z,43.18
2022-08-22T14:53:40.283Z,43.59
2022-08-22T14:56:22.551Z,43.69
2022-08-22T14:59:12.430Z,43.92
2022-08-22T15:01:58.800Z,44.35
2022-08-22T15:04:45.662Z,45.04
2022-08-22T15:07:37.564Z,45.17
2022-08-22T15:10:34.422Z,44.98
2022-08-22T15:13:10.966Z,45.52
2022-08-22T15:19:42.953Z,45.47
2022-08-22T15:22:19.505Z,45.47
2022-08-22T15:28:14.225Z,45.64
2022-08-22T15:31:03.522Z,45.67
2022-08-22T15:33:43.488Z,45.80
2022-08-22T15:36:18.197Z,45.86
2022-08-22T15:38:53.430Z,45.93
2022-08-22T15:41:45.805Z,45.99
2022-08-22T15:44:31.018Z,46.02
2022-08-22T15:47:34.939Z,45.95
2022-08-22T15:50:14.653Z,46.17
2022-08-22T15:53:15.544Z,46.67
2022-08-22T15:56:05.282Z,46.93
2022-08-22T15:58:48.845Z,47.00
2022-08-22T16:01:31.934Z,46.83
2022-08-22T16:04:01.525Z,47.10
2022-08-22T16:06:55.382Z,47.30
2022-08-22T16:09:49.243Z,47.70
2022-08-22T16:12:41.193Z,47.65
2022-08-22T16:15:56.343Z,48.34
2022-08-22T16:18:37.550Z,48.22
2022-08-22T16:21:17.743Z,48.01
2022-08-22T16:23:51.450Z,48.38
2022-08-22T16:26:20.741Z,48.21
2022-08-22T16:29:17.491Z,48.55
2022-08-22T16:31:47.898Z,48.50
2022-08-22T16:34:16.038Z,48.64
2022-08-22T16:37:08.672Z,48.62
2022-08-22T16:39:36.680Z,48.68
2022-08-22T16:42:16.547Z,48.85
2022-08-22T16:44:54.903Z,48.64
2022-08-22T16:47:32.776Z,48.72
2022-08-22T16:50:18.757Z,48.86
2022-08-22T16:53:11.100Z,48.97
2022-08-22T16:55:40.567Z,49.38
2022-08-22T16:58:56.534Z,49.41
2022-08-22T17:02:07.100Z,49.46
2022-08-22T17:04:45.671Z,49.76
2022-08-22T17:07:35.023Z,50.25
2022-08-22T17:10:30.737Z,50.21
2022-08-22T17:13:28.490Z,51.04
2022-08-22T17:16:14.192Z,51.16
2022-08-22T17:19:10.131Z,51.38
2022-08-22T17:21:51.754Z,51.74
2022-08-22T17:24:33.503Z,51.61
2022-08-22T17:27:32.221Z,52.43
2022-08-22T17:30:09.716Z,52.36
2022-08-22T17:33:00.986Z,52.38
2022-08-22T17:35:55.227Z,52.71
2022-08-22T17:38:53.545Z,52.73
2022-08-22T17:41:58.251Z,52.74
2022-08-22T17:44:50.924Z,52.97
2022-08-22T17:47:23.896Z,53.11
2022-08-22T17:50:01.473Z,53.21
2022-08-22T17:52:45.094Z,53.37
2022-08-22T17:55:27.484Z,53.38
2022-08-22T17:58:12.078Z,53.56
2022-08-22T18:01:52.779Z,53.51
2022-08-22T18:04:47.521Z,53.66
2022-08-22T18:07:27.313Z,53.88
2022-08-22T18:13:29.722Z,54.10
2022-08-22T18:16:27.134Z,53.93
2022-08-22T18:19:20.888Z,54.17
2022-08-22T18:21:54.916Z,54.33
2022-08-22T18:24:49.501Z,54.41
2022-08-22T18:27:46.741Z,54.82
2022-08-22T18:30:22.371Z,55.11
2022-08-22T18:33:15.999Z,55.17
2022-08-22T18:35:59.549Z,55.72
2022-08-22T18:38:56.180Z,55.55
2022-08-22T18:41:39.347Z,55.53
2022-08-22T18:44:22.820Z,56.05
2022-08-22T18:46:54.801Z,55.86
2022-08-22T18:49:22.888Z,56.02
2022-08-22T18:52:22.525Z,56.16
2022-08-22T18:55:27.952Z,56.55
2022-08-22T19:02:26.146Z,56.88
2022-08-22T19:05:14.591Z,56.92
2022-08-22T19:08:09.987Z,57.03
2022-08-22T19:10:54.527Z,57.09
2022-08-22T19:13:34.634Z,57.44
2022-08-22T19:16:27.169Z,57.61
2022-08-22T19:19:01.756Z,57.76
2022-08-22T19:21:54.012Z,57.93
2022-08-22T19:24:27.856Z,58.13
2022-08-22T19:27:10.739Z,58.16
2022-08-22T19:29:38.554Z,58.40
2022-08-22T19:32:12.916Z,58.60
2022-08-22T19:34:46.942Z,58.67
2022-08-22T19:37:33.722Z,58.94
2022-08-22T19:40:10.474Z,59.04
2022-08-22T19:42:43.293Z,59.36
2022-08-22T19:45:20.121Z,59.38
2022-08-22T19:47:59.604Z,59.66
2022-08-22T19:50:35.760Z,60.20
2022-08-22T19:59:51.129Z,61.08
2022-08-22T20:02:26.371Z,61.23
2022-08-22T20:05:11.921Z,61.48
2022-08-22T20:08:21.957Z,61.97
2022-08-22T20:11:08.495Z,62.02
2022-08-22T20:13:38.455Z,62.62
2022-08-22T20:16:24.680Z,62.81
2022-08-22T20:19:24.678Z,63.36
2022-08-22T20:22:11.818Z,63.44
2022-08-22T20:24:51.815Z,63.80
2022-08-22T20:40:56.991Z,64.71
2022-08-22T20:43:45.547Z,64.81
2022-08-22T20:46:37.244Z,64.67
2022-08-22T20:49:08.009Z,64.92
2022-08-22T20:55:13.940Z,65.44
2022-08-22T20:58:22.675Z,65.50
2022-08-22T21:00:57.492Z,65.17
2022-08-22T21:03:48.082Z,65.38
2022-08-22T21:06:43.561Z,65.59
2022-08-22T21:13:22.163Z,65.87
2022-08-22T21:15:58.198Z,66.38
2022-08-22T21:19:16.879Z,66.46
2022-08-22T21:21:45.082Z,66.55
2022-08-22T21:24:13.638Z,66.62
2022-08-22T21:27:02.837Z,66.96
2022-08-22T21:29:44.011Z,67.08
2022-08-22T21:32:26.557Z,66.70
2022-08-22T21:34:58.337Z,67.00
2022-08-22T21:37:46.820Z,66.95
2022-08-22T21:40:32.949Z,67.03
2022-08-22T21:43:08.685Z,67.15
2022-08-22T21:45:40.507Z,67.34
2022-08-22T21:48:35.575Z,67.41
2022-08-22T21:51:23.442Z,67.73
2022-08-22T21:53:56.075Z,67.77
2022-08-22T21:56:42.028Z,67.88
2022-08-22T21:59:59.500Z,67.71
2022-08-22T22:02:39.624Z,67.83
2022-08-22T22:05:08.526Z,67.91
2022-08-22T22:07:47.975Z,68.01
2022-08-22T22:13:51.485Z,68.56
2022-08-22T22:16:30.197Z,69.09
2022-08-22T22:19:01.099Z,69.30
2022-08-22T22:24:26.755Z,69.29
2022-08-22T22:26:57.429Z,69.21
2022-08-22T22:29:27.758Z,69.28
2022-08-22T22:31:56.030Z,70.12
2022-08-22T22:34:26.206Z,70.30
2022-08-22T22:36:57.567Z,70.86
2022-08-22T22:39:26.016Z,71.08
2022-08-22T22:41:53.974Z,71.02
2022-08-22T22:44:22.318Z,70.75
2022-08-22T22:46:50.367Z,70.86
2022-08-22T22:49:20.146Z,71.06
2022-08-22T22:51:49.614Z,71.40
2022-08-22T22:54:18.137Z,71.40
2022-08-22T22:56:47.942Z,71.43
2022-08-22T22:59:16.377Z,71.47
2022-08-22T23:02:02.732Z,71.40
2022-08-22T23:04:36.609Z,71.34
2022-08-22T23:07:07.517Z,71.56
2022-08-22T23:09:38.640Z,71.94
2022-08-22T23:12:15.075Z,71.93
2022-08-22T23:14:43.368Z,71.75
2022-08-22T23:17:11.920Z,71.55
2022-08-22T23:19:44.206Z,71.85
2022-08-22T23:22:16.342Z,71.83
2022-08-22T23:24:44.694Z,71.72
2022-08-22T23:27:13.719Z,71.58
2022-08-22T23:29:43.658Z,71.72
2022-08-22T23:32:13.912Z,71.68
2022-08-22T23:34:46.285Z,71.91
2022-08-22T23:40:24.092Z,72.70
2022-08-22T23:42:53.527Z,73.03
2022-08-22T23:45:21.765Z,72.88
2022-08-22T23:47:50.040Z,73.37
2022-08-22T23:50:18.417Z,73.37
2022-08-22T23:52:47.656Z,73.54
2022-08-22T23:55:15.862Z,73.90
2022-08-22T23:57:44.004Z,73.68
